createdAt,value
2018-09-06T00:01:19.735Z,10.53
2018-09-06T00:04:29.002Z,10.00
2018-09-06T00:07:38.292Z,10.27
2018-09-06T00:10:47.585Z,10.17
2018-09-06T00:13:56.823Z,9.90
2018-09-06T00:17:06.103Z,10.00
2018-09-06T00:20:15.271Z,10.00
2018-09-06T00:23:24.566Z,11.43
2018-09-06T00:26:33.851Z,10.43
2018-09-06T00:29:43.027Z,10.77
2018-09-06T00:32:52.307Z,10.87
2018-09-06T00:36:01.571Z,10.60
2018-09-06T00:39:10.844Z,10.07
2018-09-06T00:42:19.976Z,11.40
2018-09-06T00:45:29.352Z,11.23
2018-09-06T00:48:38.737Z,11.27
2018-09-06T00:51:48.111Z,11.30
2018-09-06T00:54:57.569Z,11.73
2018-09-06T00:58:06.884Z,11.53
2018-09-06T01:01:16.131Z,10.97
2018-09-06T01:04:25.457Z,10.93
2018-09-06T01:07:34.830Z,11.57
2018-09-06T01:10:44.169Z,11.87
2018-09-06T01:13:53.393Z,11.80
2018-09-06T01:17:02.728Z,12.53
2018-09-06T01:20:11.857Z,12.27
2018-09-06T01:23:21.197Z,12.37
2018-09-06T01:26:30.455Z,11.50
2018-09-06T01:29:39.705Z,11.93
2018-09-06T01:32:48.877Z,11.00
2018-09-06T01:36:03.484Z,12.30
2018-09-06T01:39:12.608Z,12.33
2018-09-06T01:42:21.793Z,11.50
2018-09-06T01:45:31.035Z,12.47
2018-09-06T01:48:40.369Z,12.43
2018-09-06T01:51:49.604Z,13.33
2018-09-06T01:54:58.754Z,12.30
2018-09-06T01:58:08.021Z,12.40
2018-09-06T02:01:17.314Z,12.87
2018-09-06T02:04:26.571Z,12.67
2018-09-06T02:07:35.749Z,12.53
2018-09-06T02:10:44.894Z,13.37
2018-09-06T02:13:54.057Z,12.47
2018-09-06T02:17:03.279Z,13.30
2018-09-06T02:20:12.536Z,13.77
2018-09-06T02:23:21.887Z,12.83
2018-09-06T02:26:31.362Z,12.77
2018-09-06T02:29:40.739Z,13.10
2018-09-06T02:32:50.809Z,13.70
2018-09-06T02:36:00.007Z,13.20
2018-09-06T02:39:10.461Z,13.70
2018-09-06T02:42:19.707Z,13.27
2018-09-06T02:45:28.911Z,13.93
2018-09-06T02:48:40.431Z,14.17
2018-09-06T02:51:50.379Z,13.93
2018-09-06T02:54:59.656Z,14.03
2018-09-06T02:58:08.997Z,14.00
2018-09-06T03:01:18.166Z,15.00
2018-09-06T03:04:27.638Z,14.63
2018-09-06T03:07:37.012Z,13.93
2018-09-06T03:10:48.118Z,14.70
2018-09-06T03:13:57.354Z,14.37
2018-09-06T03:17:06.583Z,14.33
2018-09-06T03:20:16.141Z,14.17
2018-09-06T03:23:25.458Z,14.77
2018-09-06T03:26:35.470Z,14.67
2018-09-06T03:29:44.694Z,15.53
2018-09-06T03:32:54.061Z,14.73
2018-09-06T03:36:03.266Z,15.37
2018-09-06T03:39:12.463Z,15.67
2018-09-06T03:42:21.877Z,15.43
2018-09-06T03:45:31.048Z,14.50
2018-09-06T03:48:40.387Z,15.57
2018-09-06T03:51:50.092Z,17.00
2018-09-06T03:54:59.455Z,16.27
2018-09-06T03:58:08.743Z,16.23
2018-09-06T04:01:18.115Z,16.67
2018-09-06T04:04:27.349Z,16.97
2018-09-06T04:07:36.731Z,17.10
2018-09-06T04:10:45.841Z,18.20
2018-09-06T04:13:55.161Z,19.00
2018-09-06T04:17:04.554Z,18.63
2018-09-06T04:20:13.828Z,18.53
2018-09-06T04:23:23.074Z,18.43
2018-09-06T04:26:32.499Z,18.20
2018-09-06T04:29:41.752Z,18.57
2018-09-06T04:32:50.922Z,18.67
2018-09-06T04:36:00.262Z,18.37
2018-09-06T04:39:10.882Z,18.67
2018-09-06T04:42:20.094Z,18.67
2018-09-06T04:45:29.347Z,18.03
2018-09-06T04:48:38.452Z,19.53
2018-09-06T04:51:48.522Z,17.10
2018-09-06T04:54:57.679Z,17.23
2018-09-06T04:58:06.906Z,16.50
2018-09-06T05:01:16.296Z,17.73
2018-09-06T05:04:25.711Z,16.27
2018-09-06T05:07:34.852Z,16.20
2018-09-06T05:10:44.047Z,17.10
2018-09-06T05:13:53.263Z,16.80
2018-09-06T05:17:03.150Z,16.17
2018-09-06T05:20:12.317Z,15.93
2018-09-06T05:23:21.454Z,16.73
2018-09-06T05:26:30.751Z,16.37
2018-09-06T05:29:39.907Z,16.13
2018-09-06T05:32:49.292Z,14.87
2018-09-06T05:35:58.520Z,15.83
2018-09-06T05:39:09.202Z,17.20
2018-09-06T05:42:18.623Z,16.00
2018-09-06T05:45:28.036Z,15.60
2018-09-06T05:48:37.349Z,16.10
2018-09-06T05:51:46.655Z,15.85
2018-09-06T05:54:55.949Z,15.53
2018-09-06T05:58:05.439Z,16.10
2018-09-06T06:01:14.459Z,15.48
2018-09-06T06:04:23.604Z,15.75
2018-09-06T06:07:44.306Z,17.12
2018-09-06T06:10:53.592Z,15.28
2018-09-06T06:14:02.865Z,15.08
2018-09-06T06:17:12.314Z,16.40
2018-09-06T06:20:21.544Z,15.18
2018-09-06T06:23:30.786Z,16.48
2018-09-06T06:26:39.995Z,16.52
2018-09-06T06:29:49.361Z,16.77
2018-09-06T06:32:58.642Z,16.65
2018-09-06T06:36:07.981Z,16.93
2018-09-06T06:39:17.132Z,17.12
2018-09-06T06:42:26.342Z,17.92
2018-09-06T06:45:35.723Z,19.35
2018-09-06T06:48:45.076Z,18.45
2018-09-06T06:51:54.205Z,18.77
2018-09-06T06:55:03.526Z,20.65
2018-09-06T06:58:12.964Z,19.70
2018-09-06T07:01:22.368Z,21.37
2018-09-06T07:04:31.662Z,21.40
2018-09-06T07:07:40.827Z,21.68
2018-09-06T07:10:50.182Z,21.70
2018-09-06T07:13:59.461Z,24.23
2018-09-06T07:17:09.045Z,22.50
2018-09-06T07:20:18.182Z,21.82
2018-09-06T07:23:27.558Z,21.85
2018-09-06T07:26:36.719Z,22.50
2018-09-06T07:29:46.224Z,21.25
2018-09-06T07:32:55.489Z,22.73
2018-09-06T07:36:04.734Z,21.12
2018-09-06T07:39:13.978Z,20.95
2018-09-06T07:42:24.307Z,19.75
2018-09-06T07:45:33.578Z,19.52
2018-09-06T07:48:43.114Z,19.17
2018-09-06T07:51:52.495Z,19.45
2018-09-06T07:55:01.676Z,18.85
2018-09-06T07:58:11.096Z,18.82
2018-09-06T08:01:20.290Z,17.90
2018-09-06T08:04:29.487Z,17.82
2018-09-06T08:07:38.769Z,17.30
2018-09-06T08:10:47.961Z,16.77
2018-09-06T08:13:57.383Z,15.75
2018-09-06T08:17:06.675Z,15.50
2018-09-06T08:20:15.762Z,14.95
2018-09-06T08:23:30.110Z,16.23
2018-09-06T08:26:39.513Z,14.73
2018-09-06T08:29:48.868Z,15.88
2018-09-06T08:32:58.050Z,14.75
2018-09-06T08:36:07.308Z,14.20
2018-09-06T08:39:16.589Z,13.85
2018-09-06T08:42:25.899Z,13.18
2018-09-06T08:45:35.237Z,13.45
2018-09-06T08:48:44.625Z,12.73
2018-09-06T08:51:53.889Z,14.00
2018-09-06T08:55:03.129Z,13.13
2018-09-06T08:58:12.359Z,12.60
2018-09-06T09:01:27.247Z,13.55
2018-09-06T09:04:36.458Z,12.25
2018-09-06T09:07:45.651Z,12.98
2018-09-06T09:10:54.872Z,12.90
2018-09-06T09:14:04.350Z,11.90
2018-09-06T09:17:13.790Z,11.95
2018-09-06T09:20:23.015Z,11.93
2018-09-06T09:23:32.261Z,12.35
2018-09-06T09:26:41.450Z,12.10
2018-09-06T09:29:50.680Z,11.78
2018-09-06T09:32:59.866Z,12.85
2018-09-06T09:36:09.022Z,11.85
2018-09-06T09:39:18.175Z,12.37
2018-09-06T09:42:27.495Z,12.28
2018-09-06T09:45:36.894Z,11.68
2018-09-06T09:48:46.303Z,11.20
2018-09-06T09:51:55.602Z,12.07
2018-09-06T09:55:05.003Z,11.70
2018-09-06T09:58:14.347Z,11.45
2018-09-06T10:01:27.982Z,12.07
2018-09-06T10:04:43.361Z,11.70
2018-09-06T10:07:56.814Z,11.43
2018-09-06T10:11:06.124Z,9.73
2018-09-06T10:14:15.938Z,10.20
2018-09-06T10:17:25.213Z,10.60
2018-09-06T10:20:34.531Z,10.65
2018-09-06T10:23:43.911Z,10.53
2018-09-06T10:26:53.212Z,10.08
2018-09-06T10:30:02.550Z,10.15
2018-09-06T10:33:11.943Z,8.73
2018-09-06T10:36:21.271Z,10.05
2018-09-06T10:39:30.672Z,9.65
2018-09-06T10:42:39.863Z,9.80
2018-09-06T10:45:49.059Z,9.25
2018-09-06T10:48:58.314Z,10.08
2018-09-06T10:52:07.698Z,10.60
2018-09-06T10:55:16.973Z,9.13
2018-09-06T10:58:26.135Z,8.75
2018-09-06T11:01:35.453Z,9.10
2018-09-06T11:04:44.568Z,9.95
2018-09-06T11:07:53.981Z,9.53
2018-09-06T11:11:03.154Z,9.05
2018-09-06T11:14:12.538Z,10.32
2018-09-06T11:17:21.894Z,10.70
2018-09-06T11:20:31.012Z,9.73
2018-09-06T11:23:40.319Z,10.13
2018-09-06T11:26:49.537Z,10.18
2018-09-06T11:29:58.754Z,10.03
2018-09-06T11:33:07.947Z,9.48
2018-09-06T11:36:17.096Z,9.70
2018-09-06T11:39:26.324Z,9.73
2018-09-06T11:42:35.487Z,9.25
2018-09-06T11:45:44.834Z,9.43
2018-09-06T11:48:54.668Z,9.45
2018-09-06T11:52:03.937Z,9.73
2018-09-06T11:55:13.180Z,9.58
2018-09-06T11:58:22.378Z,8.95
2018-09-06T12:01:31.705Z,9.30
2018-09-06T12:04:40.949Z,10.00
2018-09-06T12:07:50.161Z,8.73
2018-09-06T12:10:59.411Z,9.18
2018-09-06T12:14:08.751Z,9.38
2018-09-06T12:17:18.021Z,8.78
2018-09-06T12:20:27.527Z,8.58
2018-09-06T12:23:36.708Z,8.45
2018-09-06T12:26:45.997Z,8.90
2018-09-06T12:29:55.438Z,8.93
2018-09-06T12:33:04.874Z,9.38
2018-09-06T12:36:14.048Z,8.90
2018-09-06T12:39:23.876Z,7.83
2018-09-06T12:42:33.074Z,8.20
2018-09-06T12:45:42.203Z,8.10
2018-09-06T12:48:51.462Z,8.35
2018-09-06T12:52:00.828Z,8.35
2018-09-06T12:55:09.980Z,8.75
2018-09-06T12:58:19.431Z,8.25
2018-09-06T13:01:28.694Z,8.68
2018-09-06T13:04:37.969Z,8.38
2018-09-06T13:07:47.308Z,8.28
2018-09-06T13:10:56.405Z,7.70
2018-09-06T13:14:05.559Z,8.68
2018-09-06T13:17:14.901Z,8.55
2018-09-06T13:20:24.085Z,8.00
2018-09-06T13:23:33.491Z,7.97
2018-09-06T13:26:42.815Z,8.00
2018-09-06T13:29:52.071Z,7.85
2018-09-06T13:33:01.255Z,7.70
2018-09-06T13:36:10.455Z,7.62
2018-09-06T13:39:19.605Z,8.13
2018-09-06T13:42:28.876Z,8.10
2018-09-06T13:45:38.108Z,8.53
2018-09-06T13:48:47.314Z,7.97
2018-09-06T13:51:56.489Z,8.50
2018-09-06T13:55:05.691Z,7.90
2018-09-06T13:58:15.007Z,8.45
2018-09-06T14:01:24.239Z,7.42
2018-09-06T14:04:33.520Z,8.00
2018-09-06T14:07:42.830Z,8.05
2018-09-06T14:10:52.243Z,8.05
2018-09-06T14:14:01.771Z,8.43
2018-09-06T14:17:18.084Z,7.58
2018-09-06T14:20:27.363Z,8.65
2018-09-06T14:23:36.796Z,7.80
2018-09-06T14:26:45.991Z,7.92
2018-09-06T14:29:55.344Z,8.08
2018-09-06T14:33:04.606Z,8.65
2018-09-06T14:36:13.799Z,7.72
2018-09-06T14:39:22.990Z,7.95
2018-09-06T14:42:32.159Z,7.62
2018-09-06T14:45:41.304Z,8.50
2018-09-06T14:48:50.455Z,9.05
2018-09-06T14:51:59.542Z,8.78
2018-09-06T14:55:08.927Z,8.05
2018-09-06T14:58:18.208Z,8.15
2018-09-06T15:01:27.553Z,8.25
2018-09-06T15:04:36.858Z,8.15
2018-09-06T15:07:46.052Z,8.35
2018-09-06T15:10:55.328Z,9.05
2018-09-06T15:14:04.591Z,8.23
2018-09-06T15:17:14.583Z,8.45
2018-09-06T15:20:23.797Z,7.92
2018-09-06T15:23:32.913Z,8.00
2018-09-06T15:26:42.091Z,8.43
2018-09-06T15:29:51.320Z,8.23
2018-09-06T15:33:00.714Z,7.90
2018-09-06T15:36:09.991Z,8.65
2018-09-06T15:39:19.150Z,8.28
2018-09-06T15:42:28.304Z,8.70
2018-09-06T15:45:37.706Z,8.10
2018-09-06T15:48:47.011Z,8.40
2018-09-06T15:51:56.159Z,8.48
2018-09-06T15:55:05.431Z,8.13
2018-09-06T15:58:14.878Z,8.95
2018-09-06T16:01:24.288Z,8.33
2018-09-06T16:04:33.391Z,9.35
2018-09-06T16:07:42.692Z,9.65
2018-09-06T16:10:51.887Z,8.50
2018-09-06T16:14:01.166Z,8.70
2018-09-06T16:17:10.439Z,9.13
2018-09-06T16:20:19.877Z,9.18
2018-09-06T16:23:29.183Z,8.78
2018-09-06T16:26:38.483Z,9.08
2018-09-06T16:29:47.783Z,8.68
2018-09-06T16:32:57.220Z,8.78
2018-09-06T16:36:06.396Z,9.55
2018-09-06T16:39:15.633Z,8.68
2018-09-06T16:42:24.844Z,9.40
2018-09-06T16:45:34.136Z,8.45
2018-09-06T16:48:43.387Z,8.80
2018-09-06T16:51:52.509Z,8.95
2018-09-06T16:55:01.865Z,8.70
2018-09-06T16:58:11.086Z,8.55
2018-09-06T17:01:22.142Z,8.10
2018-09-06T17:04:31.373Z,8.23
2018-09-06T17:07:40.818Z,8.83
2018-09-06T17:10:50.139Z,9.23
2018-09-06T17:13:59.466Z,8.33
2018-09-06T17:17:09.242Z,7.97
2018-09-06T17:20:18.501Z,8.60
2018-09-06T17:23:27.881Z,8.83
2018-09-06T17:26:37.224Z,8.93
2018-09-06T17:29:46.471Z,9.35
2018-09-06T17:32:55.920Z,9.10
2018-09-06T17:36:05.113Z,8.45
2018-09-06T17:39:14.449Z,9.00
2018-09-06T17:42:23.522Z,8.98
2018-09-06T17:45:32.861Z,8.48
2018-09-06T17:48:42.242Z,9.18
2018-09-06T17:51:51.535Z,9.13
2018-09-06T17:55:00.826Z,8.85
2018-09-06T17:58:10.189Z,8.48
2018-09-06T18:01:37.141Z,8.48
2018-09-06T18:04:46.278Z,8.03
2018-09-06T18:07:55.499Z,8.05
2018-09-06T18:11:04.680Z,8.78
2018-09-06T18:14:13.985Z,7.92
2018-09-06T18:17:23.196Z,8.25
2018-09-06T18:20:32.420Z,8.80
2018-09-06T18:23:41.910Z,8.43
2018-09-06T18:26:51.022Z,9.13
2018-09-06T18:30:00.247Z,8.70
2018-09-06T18:33:09.574Z,9.23
2018-09-06T18:36:18.812Z,9.23
2018-09-06T18:39:28.177Z,9.80
2018-09-06T18:42:37.431Z,9.83
2018-09-06T18:45:46.839Z,9.57
2018-09-06T18:48:56.148Z,9.60
2018-09-06T18:52:05.395Z,9.30
2018-09-06T18:55:14.556Z,9.55
2018-09-06T18:58:23.880Z,9.83
2018-09-06T19:01:33.178Z,9.55
2018-09-06T19:08:04.778Z,9.90
2018-09-06T19:11:14.020Z,9.60
2018-09-06T19:14:23.160Z,9.83
2018-09-06T19:17:32.406Z,9.77
2018-09-06T19:20:41.657Z,9.57
2018-09-06T19:23:57.665Z,9.83
2018-09-06T19:27:07.123Z,10.03
2018-09-06T19:30:16.378Z,10.03
2018-09-06T19:33:25.633Z,10.60
2018-09-06T19:36:34.835Z,9.97
2018-09-06T19:39:44.043Z,9.97
2018-09-06T19:42:53.466Z,9.60
2018-09-06T19:46:02.672Z,9.63
2018-09-06T19:49:12.145Z,9.57
2018-09-06T19:52:21.315Z,9.67
2018-09-06T19:55:30.613Z,9.80
2018-09-06T19:58:39.959Z,10.00
2018-09-06T20:01:49.287Z,10.27
2018-09-06T20:04:58.662Z,9.87
2018-09-06T20:08:07.919Z,9.30
2018-09-06T20:11:17.302Z,9.77
2018-09-06T20:14:26.583Z,10.20
2018-09-06T20:17:35.883Z,9.60
2018-09-06T20:20:45.157Z,9.77
2018-09-06T20:23:54.312Z,9.93
2018-09-06T20:27:03.534Z,10.07
2018-09-06T20:30:12.706Z,10.83
2018-09-06T20:33:21.985Z,9.90
2018-09-06T20:36:31.160Z,10.20
2018-09-06T20:39:40.429Z,10.37
2018-09-06T20:42:49.671Z,10.00
2018-09-06T20:45:59.503Z,9.73
2018-09-06T20:49:08.819Z,10.13
2018-09-06T20:52:18.071Z,10.13
2018-09-06T20:55:27.493Z,9.43
2018-09-06T20:58:36.835Z,10.53
2018-09-06T21:01:46.108Z,9.33
2018-09-06T21:04:55.292Z,10.30
2018-09-06T21:08:04.610Z,10.27
2018-09-06T21:11:13.966Z,10.37
2018-09-06T21:14:23.422Z,9.43
2018-09-06T21:17:32.607Z,9.63
2018-09-06T21:20:41.793Z,10.00
2018-09-06T21:23:50.998Z,10.73
2018-09-06T21:27:00.162Z,10.27
2018-09-06T21:30:09.380Z,11.33
2018-09-06T21:33:18.529Z,10.10
2018-09-06T21:36:27.679Z,10.37
2018-09-06T21:39:36.999Z,10.30
2018-09-06T21:42:46.212Z,11.33
2018-09-06T21:45:55.683Z,11.03
2018-09-06T21:49:05.128Z,10.87
2018-09-06T21:52:14.351Z,10.73
2018-09-06T21:55:23.622Z,10.70
2018-09-06T21:58:32.963Z,11.43
2018-09-06T22:01:42.223Z,11.47
2018-09-06T22:04:51.568Z,11.73
2018-09-06T22:08:00.898Z,11.97
2018-09-06T22:11:10.171Z,11.50
2018-09-06T22:14:19.490Z,10.87
2018-09-06T22:17:28.701Z,12.57
2018-09-06T22:20:38.117Z,12.10
2018-09-06T22:23:47.261Z,12.23
2018-09-06T22:26:56.644Z,12.07
2018-09-06T22:30:06.043Z,11.67
2018-09-06T22:33:15.406Z,12.50
2018-09-06T22:36:24.611Z,12.07
2018-09-06T22:39:33.863Z,12.23
2018-09-06T22:42:43.202Z,12.77
2018-09-06T22:45:53.103Z,13.37
2018-09-06T22:49:02.347Z,11.93
2018-09-06T22:52:11.531Z,13.43
2018-09-06T22:55:20.832Z,12.67
2018-09-06T22:58:30.314Z,13.47
2018-09-06T23:01:39.836Z,13.33
2018-09-06T23:04:49.037Z,13.27
2018-09-06T23:07:58.311Z,12.50
2018-09-06T23:11:07.500Z,13.13
2018-09-06T23:14:16.791Z,13.13
2018-09-06T23:17:26.180Z,13.13
2018-09-06T23:20:35.342Z,12.97
2018-09-06T23:23:44.551Z,13.60
2018-09-06T23:26:53.898Z,12.93
2018-09-06T23:30:03.096Z,12.80
2018-09-06T23:33:12.400Z,14.03
2018-09-06T23:36:21.668Z,13.90
2018-09-06T23:39:30.923Z,13.10
2018-09-06T23:42:40.948Z,13.60
2018-09-06T23:45:53.206Z,14.57
2018-09-06T23:49:02.430Z,14.03
2018-09-06T23:52:11.841Z,14.50
2018-09-06T23:55:21.128Z,14.63
2018-09-06T23:58:30.463Z,15.27
